Time;durP1;ratioP1;P1;durP2;ratioP2;P2;SDS_P1;SDS_P2;PMS_P1;PMS_P2;Temp;Humidity;BMP_temperature;BMP_pressure;BME280_temperature;BME280_humidity;BME280_pressure;Samples;Min_cycle;Max_cycle;Signal;HPM_P1;HPM_P2
2022/08/24 00:02:38;;;;;;;248.38;37.83;;;;;;;19.26;100.00;99542.31;8421201;28;20040;-74
2022/08/24 00:06:46;;;;;;;239.75;39.28;;;;;;;19.22;100.00;99541.44;8414243;28;20132;-74
2022/08/24 00:10:55;;;;;;;177.98;38.92;;;;;;;19.25;100.00;99543.47;8409363;28;20052;-75
2022/08/24 00:14:59;;;;;;;259.20;38.95;;;;;;;19.26;100.00;99539.59;8387080;28;20056;-74
2022/08/24 00:19:11;;;;;;;262.15;43.55;;;;;;;19.26;100.00;99542.31;8427656;28;20098;-75
2022/08/24 00:23:17;;;;;;;145.60;39.60;;;;;;;19.26;100.00;99548.59;8426448;28;20460;-74
2022/08/24 00:27:21;;;;;;;254.32;41.25;;;;;;;19.27;100.00;99552.13;8409812;28;20044;-74
2022/08/24 00:31:22;;;;;;;315.58;41.28;;;;;;;19.26;100.00;99542.31;8427173;28;20065;-75
2022/08/24 00:35:31;;;;;;;243.98;40.88;;;;;;;19.25;100.00;99546.19;8422197;28;20093;-75
2022/08/24 00:39:46;;;;;;;260.48;43.08;;;;;;;19.25;100.00;99546.19;8315452;28;20140;-74
2022/08/24 00:44:19;;;;;;;296.45;43.05;;;;;;;19.22;100.00;99533.25;8333829;28;20103;-75
2022/08/24 00:48:35;;;;;;;273.77;41.17;;;;;;;19.23;100.00;99534.81;8345397;28;20052;-75
2022/08/24 00:52:51;;;;;;;319.38;41.15;;;;;;;19.25;100.00;99529.78;8331993;28;20508;-75
2022/08/24 00:57:04;;;;;;;248.38;42.00;;;;;;;19.25;100.00;99536.03;8296397;28;20052;-74
2022/08/24 01:01:11;;;;;;;129.23;41.38;;;;;;;19.26;100.00;99531.38;8274168;28;20074;-74
2022/08/24 01:05:12;;;;;;;148.75;41.47;;;;;;;19.23;100.00;99532.09;8360634;28;20081;-75
2022/08/24 01:09:13;;;;;;;206.30;42.75;;;;;;;19.21;100.00;99526.16;8385142;28;20445;-74
2022/08/24 01:13:14;;;;;;;340.23;46.08;;;;;;;19.21;100.00;99517.94;8381699;28;20115;-75
2022/08/24 01:22:04;;;;;;;212.43;41.50;;;;;;;19.21;100.00;99501.53;8358113;28;20503;-74
2022/08/24 01:26:07;;;;;;;147.25;39.80;;;;;;;19.20;100.00;99510.88;8283941;28;20395;-73
2022/08/24 01:30:12;;;;;;;339.58;40.92;;;;;;;19.19;100.00;99503.84;8281044;28;20137;-73
2022/08/24 01:34:36;;;;;;;436.52;41.75;;;;;;;19.17;100.00;99500.66;8271031;28;20049;-73
2022/08/24 01:38:37;;;;;;;284.75;42.45;;;;;;;19.17;100.00;99495.19;8289436;28;20769;-74
2022/08/24 01:42:38;;;;;;;385.98;39.90;;;;;;;19.17;100.00;99489.69;8289830;28;20058;-73
2022/08/24 01:46:59;;;;;;;249.65;38.67;;;;;;;19.15;100.00;99486.53;8239020;28;20084;-74
2022/08/24 01:51:00;;;;;;;86.43;35.90;;;;;;;19.18;100.00;99496.78;8268837;28;20047;-74
2022/08/24 01:55:05;;;;;;;212.20;38.08;;;;;;;19.20;100.00;99499.94;8260238;28;20050;-75
2022/08/24 01:59:11;;;;;;;350.85;39.60;;;;;;;19.19;100.00;99498.38;8205256;28;20550;-75
2022/08/24 02:03:13;;;;;;;263.60;38.10;;;;;;;19.18;100.00;99502.25;8297071;28;20060;-75
2022/08/24 02:07:14;;;;;;;476.75;39.40;;;;;;;19.17;100.00;99511.59;8354795;28;20048;-75
2022/08/24 02:11:18;;;;;;;438.05;38.58;;;;;;;19.16;100.00;99510.00;8326716;28;20610;-75
2022/08/24 02:15:26;;;;;;;232.27;38.03;;;;;;;19.14;100.00;99517.81;8364053;28;20041;-76
2022/08/24 02:19:35;;;;;;;300.60;39.85;;;;;;;19.15;100.00;99530.31;8353948;28;20519;-76
2022/08/24 02:23:51;;;;;;;395.45;42.22;;;;;;;19.14;100.00;99534.22;8330422;28;20051;-75
2022/08/24 02:28:06;;;;;;;252.77;38.90;;;;;;;19.15;100.00;99541.28;8358026;28;20040;-76
2022/08/24 02:32:07;;;;;;;256.73;38.15;;;;;;;19.16;100.00;99542.88;8372299;28;20546;-75
2022/08/24 02:36:14;;;;;;;194.85;38.60;;;;;;;19.14;100.00;99543.22;8358122;28;20045;-76
2022/08/24 02:40:15;;;;;;;232.40;37.67;;;;;;;19.13;100.00;99549.06;8342943;28;20068;-75
2022/08/24 02:44:18;;;;;;;215.30;38.65;;;;;;;19.15;100.00;99560.44;8344744;28;20040;-76
2022/08/24 02:48:25;;;;;;;209.77;37.67;;;;;;;19.16;100.00;99559.28;8358739;28;20029;-74
2022/08/24 02:52:29;;;;;;;116.85;37.15;;;;;;;19.15;100.00;99568.66;8347205;28;20187;-74
2022/08/24 02:56:30;;;;;;;135.50;38.42;;;;;;;19.14;100.00;99567.09;8378649;28;20148;-74
2022/08/24 03:00:38;;;;;;;141.60;39.13;;;;;;;19.09;100.00;99570.09;8401065;28;20143;-75
2022/08/24 03:04:39;;;;;;;136.27;35.38;;;;;;;19.08;100.00;99568.50;8419640;28;20120;-74
2022/08/24 03:08:48;;;;;;;124.22;35.10;;;;;;;19.10;100.00;99574.38;8416203;28;20089;-74
2022/08/24 03:12:55;;;;;;;131.00;35.72;;;;;;;19.10;100.00;99560.69;8386161;28;20496;-74
2022/08/24 03:16:59;;;;;;;156.80;38.70;;;;;;;19.11;100.00;99567.78;8406112;28;20052;-75
2022/08/24 03:21:09;;;;;;;81.32;34.45;;;;;;;19.12;100.00;99569.38;8423371;28;20293;-75
2022/08/24 03:25:19;;;;;;;146.68;38.22;;;;;;;19.12;100.00;99569.38;8391736;28;20177;-74
2022/08/24 03:29:20;;;;;;;110.60;37.35;;;;;;;19.12;100.00;99569.38;8414156;28;20554;-73
2022/08/24 03:33:21;;;;;;;110.75;34.20;;;;;;;19.11;100.00;99565.84;8422752;28;20044;-74
2022/08/24 03:37:22;;;;;;;92.18;34.90;;;;;;;19.11;100.00;99567.78;8427310;28;20059;-73
2022/08/24 03:41:23;;;;;;;154.77;37.25;;;;;;;19.10;100.00;99577.13;8426890;28;20040;-74
2022/08/24 03:45:29;;;;;;;113.03;35.85;;;;;;;19.09;100.00;99587.28;8427735;28;20047;-73
2022/08/24 03:49:37;;;;;;;261.60;35.40;;;;;;;19.10;100.00;99593.56;8427806;28;20496;-74
2022/08/24 03:53:38;;;;;;;120.93;36.22;;;;;;;19.10;100.00;99612.72;8429359;28;20555;-74
2022/08/24 03:57:50;;;;;;;147.50;35.22;;;;;;;19.09;100.00;99602.94;8410098;28;20060;-74
2022/08/24 04:01:57;;;;;;;113.72;34.67;;;;;;;19.09;100.00;99597.47;8394513;28;20052;-73
2022/08/24 04:06:00;;;;;;;132.65;32.92;;;;;;;19.10;100.00;99599.03;8428466;28;20044;-73
2022/08/24 04:10:03;;;;;;;96.50;34.13;;;;;;;19.12;100.00;99596.75;8420023;28;20036;-73
2022/08/24 04:14:07;;;;;;;65.32;32.90;;;;;;;19.12;100.00;99596.75;8392618;28;20464;-73
2022/08/24 04:18:11;;;;;;;78.55;32.03;;;;;;;19.14;100.00;99602.66;8427615;28;20044;-73
2022/08/24 04:22:12;;;;;;;106.13;32.58;;;;;;;19.17;100.00;99601.97;8428747;28;20407;-73
2022/08/24 04:26:23;;;;;;;76.65;31.30;;;;;;;19.16;100.00;99592.16;8427462;28;20038;-73
2022/08/24 04:30:24;;;;;;;76.47;30.77;;;;;;;19.15;100.00;99601.50;8390060;28;20523;-73
2022/08/24 04:34:30;;;;;;;107.88;29.88;;;;;;;19.19;100.00;99602.41;8427784;28;20060;-73
2022/08/24 04:38:45;;;;;;;;;;;;;;;;;;;;;
2022/08/24 04:42:53;;;;;;;121.05;30.70;;;;;;;19.20;100.00;99598.50;8356562;28;20054;-73
2022/08/24 04:46:57;;;;;;;87.43;31.15;;;;;;;19.19;100.00;99597.69;8408740;28;20137;-73
2022/08/24 04:51:02;;;;;;;72.55;29.50;;;;;;;19.23;100.00;99603.28;8427797;28;20097;-73
2022/08/24 04:55:09;;;;;;;85.88;29.63;;;;;;;19.24;100.00;99615.84;8392482;28;20564;-73
2022/08/24 04:59:12;;;;;;;86.55;29.42;;;;;;;19.26;100.00;99624.47;8427412;28;20127;-73
2022/08/24 05:03:18;;;;;;;77.38;29.60;;;;;;;19.31;100.00;99621.47;8425992;28;20070;-73
2022/08/24 05:07:27;;;;;;;86.00;29.63;;;;;;;19.34;100.00;99618.03;8427465;28;20044;-73
2022/08/24 05:11:29;;;;;;;69.22;29.40;;;;;;;19.35;100.00;99612.19;8427361;28;20044;-73
2022/08/24 05:15:41;;;;;;;66.05;29.83;;;;;;;19.35;100.00;99611.41;8426495;28;20370;-73
2022/08/24 05:19:42;;;;;;;72.47;29.00;;;;;;;19.33;100.00;99613.69;8424277;28;20056;-73
2022/08/24 05:23:43;;;;;;;85.60;29.85;;;;;;;19.32;100.00;99612.09;8427075;28;20051;-73
2022/08/24 05:27:47;;;;;;;102.38;30.00;;;;;;;19.29;100.00;99618.31;8395534;28;20063;-73
2022/08/24 05:31:53;;;;;;;128.60;29.92;;;;;;;19.25;100.00;99611.91;8421857;28;20500;-72
2022/08/24 05:35:54;;;;;;;125.05;31.92;;;;;;;19.25;100.00;99620.13;8416927;28;20050;-73
2022/08/24 05:40:06;;;;;;;173.85;31.52;;;;;;;19.24;100.00;99621.31;8426783;28;20040;-73
2022/08/24 05:44:14;;;;;;;92.38;30.92;;;;;;;19.26;100.00;99624.47;8381576;28;20040;-73
2022/08/24 05:48:15;;;;;;;90.75;30.38;;;;;;;19.32;100.00;99623.06;8399886;28;20049;-73
2022/08/24 05:52:22;;;;;;;98.20;31.33;;;;;;;19.37;100.00;99628.25;8424148;28;20047;-73
2022/08/24 05:56:30;;;;;;;74.25;29.27;;;;;;;19.40;100.00;99624.84;8402294;28;20063;-73
2022/08/24 06:00:37;;;;;;;62.50;29.35;;;;;;;19.42;100.00;99628.00;8408749;28;20049;-73
2022/08/24 06:04:38;;;;;;;101.63;29.30;;;;;;;19.43;100.00;99635.06;8382474;28;20049;-73
2022/08/24 06:08:44;;;;;;;100.03;30.85;;;;;;;19.42;100.00;99625.25;8407043;28;20059;-74
2022/08/24 06:12:48;;;;;;;73.10;30.13;;;;;;;19.50;100.00;99635.28;8397784;28;20048;-73
2022/08/24 06:16:51;;;;;;;81.25;29.27;;;;;;;19.53;100.00;99629.06;8426041;28;20085;-73
2022/08/24 06:20:55;;;;;;;70.90;27.88;;;;;;;19.55;100.00;99626.78;8426635;28;20452;-73
2022/08/24 06:29:18;;;;;;;61.25;31.65;;;;;;;19.69;100.00;99635.34;8432635;28;20119;-73
2022/08/24 06:33:24;;;;;;;55.42;29.20;;;;;;;19.67;100.00;99643.09;8430030;28;20048;-73
2022/08/24 06:37:29;;;;;;;43.42;26.73;;;;;;;19.71;100.00;99649.47;8397826;28;20052;-73
2022/08/24 06:41:35;;;;;;;68.82;29.05;;;;;;;19.75;100.00;99653.09;8432518;28;20557;-73
2022/08/24 06:45:44;;;;;;;63.53;29.92;;;;;;;19.78;100.00;99652.38;8412319;28;20552;-73
2022/08/24 06:49:48;;;;;;;50.53;28.73;;;;;;;19.81;100.00;99646.19;8388410;28;20047;-73
2022/08/24 06:53:54;;;;;;;54.00;29.15;;;;;;;19.78;100.00;99646.88;8417862;28;20396;-73
2022/08/24 06:57:58;;;;;;;45.40;29.83;;;;;;;19.85;100.00;99650.94;8417200;28;20139;-73
2022/08/24 07:02:00;;;;;;;53.83;31.85;;;;;;;19.90;100.00;99650.66;8431234;28;20412;-73
2022/08/24 07:06:01;;;;;;;51.88;31.52;;;;;;;19.96;100.00;99657.47;8411848;28;20079;-73
2022/08/24 07:10:04;;;;;;;56.38;37.75;;;;;;;19.97;100.00;99656.31;8422388;28;20052;-73
2022/08/24 07:14:11;;;;;;;66.95;34.65;;;;;;;19.97;100.00;99648.09;8381873;28;20059;-73
2022/08/24 07:18:16;;;;;;;60.33;33.75;;;;;;;19.96;100.00;99643.75;8407472;28;20052;-73
2022/08/24 07:22:17;;;;;;;178.35;106.60;;;;;;;19.90;100.00;99647.94;8421088;28;20549;-74
2022/08/24 07:26:23;;;;;;;108.93;39.72;;;;;;;19.86;100.00;99647.06;8416383;28;20061;-74
2022/08/24 07:30:27;;;;;;;208.32;93.45;;;;;;;19.89;100.00;99647.13;8413534;28;20056;-73
2022/08/24 07:34:28;;;;;;;221.70;72.43;;;;;;;19.81;100.00;99646.19;8430937;28;20539;-73
2022/08/24 07:38:37;;;;;;;57.40;37.20;;;;;;;19.83;100.00;99649.34;8425581;28;20151;-73
2022/08/24 07:42:41;;;;;;;49.00;32.28;;;;;;;19.83;100.00;99660.31;8411173;28;20098;-73
2022/08/24 07:46:45;;;;;;;55.38;34.50;;;;;;;19.83;100.00;99665.78;8427285;28;20091;-73
2022/08/24 07:50:46;;;;;;;48.42;30.98;;;;;;;19.89;100.00;99665.53;8402192;28;20096;-72
2022/08/24 07:54:48;;;;;;;56.30;30.17;;;;;;;19.93;100.00;99674.63;8430094;28;20403;-73
2022/08/24 07:58:51;;;;;;;45.15;28.80;;;;;;;20.03;100.00;99676.81;8429387;28;20052;-73
2022/08/24 08:02:52;;;;;;;48.80;30.00;;;;;;;20.03;100.00;99671.34;8429598;28;20058;-73
2022/08/24 08:06:54;;;;;;;50.17;29.70;;;;;;;20.06;100.00;99684.31;8406519;28;20059;-73
2022/08/24 08:10:56;;;;;;;51.42;31.35;;;;;;;20.13;100.00;99684.50;8429300;28;20044;-73
2022/08/24 08:14:56;;;;;;;47.58;29.65;;;;;;;20.16;100.00;99686.50;8428170;28;20062;-73
2022/08/24 08:19:00;;;;;;;40.85;27.45;;;;;;;20.25;100.00;99693.38;8429130;28;20051;-73
2022/08/24 08:27:24;;;;;;;45.80;28.40;;;;;;;20.31;100.00;99685.69;8392758;28;20044;-73
2022/08/24 08:31:24;;;;;;;50.80;33.30;;;;;;;20.24;100.00;99696.50;8414430;28;20043;-73
2022/08/24 08:35:26;;;;;;;44.90;26.63;;;;;;;20.19;100.00;99699.53;8414277;28;20499;-74
2022/08/24 08:39:46;;;;;;;35.50;24.15;;;;;;;20.19;100.00;99694.03;8376647;28;20052;-73
2022/08/24 08:44:00;;;;;;;64.85;32.78;;;;;;;20.27;100.00;99684.78;8360325;28;20299;-73
2022/08/24 08:48:19;;;;;;;180.23;74.35;;;;;;;20.41;100.00;99701.56;8341320;28;20049;-74
2022/08/24 08:52:56;;;;;;;38.30;24.77;;;;;;;20.45;100.00;99705.22;8368283;28;20138;-74
2022/08/24 08:57:26;;;;;;;49.42;33.40;;;;;;;20.39;100.00;99714.88;8371228;28;20498;-74
2022/08/24 09:01:41;;;;;;;48.97;26.80;;;;;;;20.32;100.00;99722.94;8356635;28;20060;-73
2022/08/24 09:06:41;;;;;;;42.78;27.25;;;;;;;20.29;100.00;99726.38;8384705;28;20060;-74
2022/08/24 09:10:56;;;;;;;43.03;29.38;;;;;;;20.36;100.00;99723.81;8405048;28;20079;-74
2022/08/24 09:15:18;;;;;;;52.70;29.13;;;;;;;20.45;100.00;99729.91;8411583;28;20076;-74
2022/08/24 09:19:32;;;;;;;94.50;58.28;;;;;;;20.43;100.00;99731.41;8427253;28;20047;-74
2022/08/24 09:24:09;;;;;;;55.03;32.40;;;;;;;20.48;100.00;99731.91;8413891;28;20047;-73
2022/08/24 09:28:51;;;;;;;68.28;35.03;;;;;;;20.49;100.00;99736.25;8410541;28;20542;-73
2022/08/24 09:33:25;;;;;;;290.30;116.67;;;;;;;20.50;100.00;99737.06;8290606;28;20054;-73
2022/08/24 09:38:05;;;;;;;156.70;75.32;;;;;;;20.70;100.00;99729.63;8131827;29;20051;-74
2022/08/24 09:42:26;;;;;;;79.07;44.37;;;;;;;20.88;100.00;99730.78;8162215;29;20547;-73
2022/08/24 09:46:56;;;;;;;71.70;43.65;;;;;;;20.96;100.00;99724.25;8162211;29;20459;-74
2022/08/24 09:51:37;;;;;;;65.53;37.63;;;;;;;21.05;100.00;99730.31;8151080;29;20047;-74
2022/08/24 09:55:59;;;;;;;63.75;36.55;;;;;;;20.96;100.00;99735.25;8161836;29;20093;-74
2022/08/24 10:00:34;;;;;;;65.05;36.42;;;;;;;20.81;100.00;99730.63;8161231;29;20052;-73
2022/08/24 10:04:51;;;;;;;73.55;40.75;;;;;;;20.75;100.00;99732.06;8145991;29;20124;-74
2022/08/24 10:09:21;;;;;;;77.63;39.40;;;;;;;20.73;100.00;99729.69;8190724;28;20054;-73
2022/08/24 10:14:21;;;;;;;83.93;50.35;;;;;;;20.80;100.00;99734.53;8342295;28;20101;-74
2022/08/24 10:18:48;;;;;;;59.20;34.10;;;;;;;20.84;100.00;99735.38;8317247;28;20058;-73
2022/08/24 10:23:36;;;;;;;60.13;34.67;;;;;;;20.89;100.00;99743.34;8233034;28;20176;-74
2022/08/24 10:28:19;;;;;;;59.38;34.88;;;;;;;20.92;100.00;99739.88;8299044;28;20075;-73
2022/08/24 10:32:56;;;;;;;58.28;33.70;;;;;;;20.96;100.00;99748.97;8211638;28;20117;-74
2022/08/24 10:37:03;;;;;;;52.50;32.95;;;;;;;20.99;100.00;99748.28;8182184;28;20050;-74
2022/08/24 10:41:15;;;;;;;48.25;30.48;;;;;;;21.01;100.00;99740.44;8203048;28;20057;-74
2022/08/24 10:45:48;;;;;;;49.75;28.15;;;;;;;21.15;100.00;99740.75;8211203;28;20154;-74
2022/08/24 10:50:20;;;;;;;46.33;27.58;;;;;;;21.32;100.00;99751.28;8195546;28;20054;-74
2022/08/24 10:54:38;;;;;;;48.28;28.08;;;;;;;21.53;100.00;99742.63;8292100;28;20403;-74
2022/08/24 10:58:45;;;;;;;46.55;28.17;;;;;;;21.76;100.00;99737.91;8321607;28;20049;-73
2022/08/24 11:03:07;;;;;;;44.65;26.05;;;;;;;21.89;100.00;99752.25;8295867;28;20056;-74
2022/08/24 11:07:21;;;;;;;51.20;28.65;;;;;;;22.03;100.00;99741.53;8345130;28;20056;-73
2022/08/24 11:11:39;;;;;;;39.03;25.75;;;;;;;22.13;100.00;99740.88;8406815;28;20390;-74
2022/08/24 11:15:51;;;;;;;45.08;26.92;;;;;;;22.13;100.00;99740.88;8414035;28;20056;-73
2022/08/24 11:20:00;;;;;;;140.40;70.82;;;;;;;22.20;100.00;99746.50;8431015;28;20044;-73
2022/08/24 11:24:31;;;;;;;49.05;30.67;;;;;;;22.22;100.00;99752.41;8412466;28;20139;-74
2022/08/24 11:28:41;;;;;;;46.17;27.98;;;;;;;22.38;100.00;99745.94;8412103;28;20066;-73
2022/08/24 11:33:06;;;;;;;34.38;22.63;;;;;;;22.56;100.00;99758.78;8430898;28;20541;-73
2022/08/24 11:37:15;;;;;;;37.83;22.60;;;;;;;22.70;100.00;99758.19;8346500;28;20049;-74
2022/08/24 11:41:29;;;;;;;36.97;22.27;;;;;;;22.81;99.54;99759.13;8326555;28;20080;-74
2022/08/24 11:45:41;;;;;;;40.45;23.92;;;;;;;22.95;98.28;99758.50;8345370;28;20080;-74
2022/08/24 11:49:57;;;;;;;38.60;24.13;;;;;;;22.93;97.50;99756.16;8343379;28;20041;-74
2022/08/24 11:54:07;;;;;;;36.75;22.73;;;;;;;22.97;97.10;99751.47;8359113;28;20048;-74
2022/08/24 11:58:23;;;;;;;37.65;23.67;;;;;;;23.27;96.64;99753.34;8326307;28;20068;-74
2022/08/24 12:02:36;;;;;;;37.95;21.90;;;;;;;23.39;97.01;99750.34;8293123;28;20404;-74
2022/08/24 12:06:53;;;;;;;;;;;;;;;;;;;;;
2022/08/24 12:11:09;;;;;;;34.22;19.75;;;;;;;23.20;97.50;99758.81;8165963;28;20510;-74
2022/08/24 12:15:38;;;;;;;107.45;53.78;;;;;;;23.37;97.70;99763.72;8270980;28;20461;-74
2022/08/24 12:19:55;;;;;;;30.42;18.90;;;;;;;23.44;96.80;99763.78;8291058;28;20054;-74
2022/08/24 12:24:19;;;;;;;33.50;19.08;;;;;;;23.45;96.36;99762.59;8263772;28;20108;-74
2022/08/24 12:28:49;;;;;;;30.48;18.55;;;;;;;23.45;95.82;99759.84;8246731;28;20054;-74
2022/08/24 12:32:57;;;;;;;26.77;17.98;;;;;;;23.52;95.04;99765.47;8108059;29;20088;-74
2022/08/24 12:37:23;;;;;;;30.58;18.48;;;;;;;23.84;92.82;99768.53;8158841;29;20406;-74
2022/08/24 12:41:51;;;;;;;28.00;17.55;;;;;;;24.31;90.68;99763.00;8186012;28;20073;-74
2022/08/24 12:45:58;;;;;;;28.92;16.88;;;;;;;24.39;91.00;99772.09;8139466;29;20444;-74
2022/08/24 12:50:29;;;;;;;28.02;16.75;;;;;;;24.25;90.35;99763.72;8119016;29;20524;-74
2022/08/24 12:54:42;;;;;;;30.50;16.77;;;;;;;24.38;89.89;99756.69;8116841;29;20071;-74
2022/08/24 12:59:03;;;;;;;26.65;15.13;;;;;;;24.45;87.89;99761.47;8180404;29;20058;-74
2022/08/24 13:03:25;;;;;;;31.33;16.85;;;;;;;24.57;88.11;99748.16;8195134;28;20053;-74
2022/08/24 13:07:46;;;;;;;29.42;15.73;;;;;;;24.55;85.81;99750.50;8182336;28;20061;-74
2022/08/24 13:12:00;;;;;;;22.95;14.68;;;;;;;24.71;85.92;99753.72;8301636;28;20052;-74
2022/08/24 13:16:13;;;;;;;35.88;15.13;;;;;;;24.97;84.96;99743.59;8291922;28;20486;-73
2022/08/24 13:20:34;;;;;;;26.20;16.48;;;;;;;25.10;84.24;99755.91;8275352;28;20048;-74
2022/08/24 13:24:48;;;;;;;123.95;67.65;;;;;;;25.07;83.82;99751.13;8285822;28;20204;-73
2022/08/24 13:29:00;;;;;;;30.85;15.43;;;;;;;25.75;81.91;99754.84;8323345;28;20132;-74
2022/08/24 13:33:09;;;;;;;51.20;28.20;;;;;;;27.04;74.35;99749.44;8276463;28;20057;-74
2022/08/24 13:37:23;;;;;;;26.45;11.63;;;;;;;28.16;70.13;99753.84;8309651;28;20045;-73
2022/08/24 13:42:09;;;;;;;24.67;10.80;;;;;;;29.26;68.01;99748.59;8323300;28;20510;-74
2022/08/24 13:46:41;;;;;;;21.98;11.60;;;;;;;29.83;67.50;99747.72;8316366;28;20049;-74
2022/08/24 13:51:12;;;;;;;21.85;10.82;;;;;;;29.44;68.35;99742.78;8323033;28;20071;-74
2022/08/24 13:55:43;;;;;;;19.83;9.55;;;;;;;28.64;68.80;99748.19;8273417;28;20056;-74
2022/08/24 14:00:28;;;;;;;21.08;10.82;;;;;;;29.10;69.57;99750.41;8270303;28;20099;-74
2022/08/24 14:05:10;;;;;;;21.95;9.68;;;;;;;30.57;64.33;99728.91;8213387;28;20146;-74
2022/08/24 14:09:35;;;;;;;18.08;9.38;;;;;;;31.84;60.03;99742.03;8193137;28;20488;-75
2022/08/24 14:13:46;;;;;;;15.65;8.77;;;;;;;32.30;58.56;99740.09;8193469;28;20507;-74
2022/08/24 14:18:36;;;;;;;20.33;9.50;;;;;;;32.61;56.35;99732.84;8193153;28;20082;-74
2022/08/24 14:23:05;;;;;;;22.05;14.57;;;;;;;32.58;54.52;99733.69;8045068;29;20134;-74
2022/08/24 14:27:40;;;;;;;16.85;8.52;;;;;;;33.18;53.88;99725.59;8036708;29;20048;-74
2022/08/24 14:32:22;;;;;;;21.77;8.50;;;;;;;32.31;54.30;99736.09;8021986;29;20452;-74
2022/08/24 14:36:50;;;;;;;20.42;8.27;;;;;;;32.79;53.74;99733.13;7961408;29;20054;-74
2022/08/24 14:41:21;;;;;;;23.40;11.52;;;;;;;32.40;56.15;99728.63;7931171;29;20093;-74
2022/08/24 14:45:55;;;;;;;18.00;9.13;;;;;;;31.46;57.38;99723.00;7947530;29;20488;-74
2022/08/24 14:50:09;;;;;;;21.40;10.68;;;;;;;29.88;60.15;99710.25;7980506;29;20092;-74
2022/08/24 14:54:29;;;;;;;19.75;9.68;;;;;;;28.98;62.99;99709.28;7981696;29;20054;-74
2022/08/24 14:59:14;;;;;;;24.20;8.77;;;;;;;28.53;64.72;99701.06;8014729;29;20491;-74
2022/08/24 15:03:44;;;;;;;20.35;9.52;;;;;;;28.22;65.56;99699.44;8069452;29;20569;-75
2022/08/24 15:08:41;;;;;;;22.48;10.60;;;;;;;27.77;66.73;99691.13;8109356;29;20055;-74
2022/08/24 15:12:48;;;;;;;24.88;11.07;;;;;;;27.41;67.53;99703.66;8078570;29;20047;-74
2022/08/24 15:17:14;;;;;;;19.27;11.40;;;;;;;27.18;68.77;99691.13;8127852;29;20048;-74
2022/08/24 15:21:53;;;;;;;29.00;12.95;;;;;;;26.91;70.22;99704.00;8059465;29;20053;-74
2022/08/24 15:26:01;;;;;;;30.13;12.02;;;;;;;26.69;70.91;99702.50;8041945;29;20088;-74
2022/08/24 15:30:06;;;;;;;17.70;10.25;;;;;;;26.53;72.03;99699.38;8041359;29;20056;-74
2022/08/24 15:34:19;;;;;;;19.42;10.35;;;;;;;26.30;73.10;99692.34;8041699;29;20106;-74
2022/08/24 15:38:28;;;;;;;21.10;11.32;;;;;;;26.18;74.82;99695.50;8041637;29;20439;-74
2022/08/24 15:42:33;;;;;;;22.40;10.45;;;;;;;25.96;74.88;99688.44;8041569;29;20073;-74
2022/08/24 15:47:05;;;;;;;24.77;10.75;;;;;;;25.86;75.46;99683.69;8057920;29;20056;-74
2022/08/24 15:51:06;;;;;;;22.58;9.68;;;;;;;25.69;76.46;99684.50;8174895;28;20043;-74
2022/08/24 15:55:37;;;;;;;20.75;11.20;;;;;;;25.60;76.68;99682.13;8192060;28;20054;-74
2022/08/24 15:59:41;;;;;;;22.88;11.02;;;;;;;25.49;76.96;99682.09;8192757;28;20583;-74
2022/08/24 16:03:56;;;;;;;20.13;10.18;;;;;;;25.35;77.91;99692.34;8423900;28;20052;-74
2022/08/24 16:08:00;;;;;;;26.10;11.27;;;;;;;25.23;78.98;99690.75;8427342;28;20050;-74
2022/08/24 16:12:30;;;;;;;21.10;11.00;;;;;;;25.18;79.34;99700.22;8401637;28;20071;-73
2022/08/24 16:16:38;;;;;;;28.67;11.35;;;;;;;25.04;79.84;99693.88;8325075;28;20103;-73
2022/08/24 16:20:48;;;;;;;19.02;11.60;;;;;;;24.92;80.43;99697.00;8305898;28;20054;-74
2022/08/24 16:25:15;;;;;;;28.60;15.68;;;;;;;24.82;81.33;99704.84;8321333;28;20099;-74
2022/08/24 16:29:40;;;;;;;23.67;12.10;;;;;;;24.70;82.32;99693.34;8267156;28;20479;-74
2022/08/24 16:33:47;;;;;;;28.80;13.73;;;;;;;24.57;83.64;99698.44;8286831;28;20046;-74
2022/08/24 16:38:07;;;;;;;22.77;13.07;;;;;;;24.44;84.13;99705.47;8293546;28;20042;-73
2022/08/24 16:42:34;;;;;;;22.73;12.25;;;;;;;24.36;84.86;99703.88;8287091;28;20118;-73
2022/08/24 16:46:43;;;;;;;30.67;12.77;;;;;;;24.29;85.27;99703.81;8367107;28;20048;-73
2022/08/24 16:50:55;;;;;;;34.88;12.95;;;;;;;24.13;86.19;99700.53;8424719;28;20495;-73
2022/08/24 16:55:03;;;;;;;29.05;13.05;;;;;;;23.94;87.31;99705.16;8378160;28;20528;-73
2022/08/24 16:59:19;;;;;;;31.35;12.98;;;;;;;23.83;88.02;99707.06;8408253;28;20070;-73
2022/08/24 17:03:31;;;;;;;22.52;12.52;;;;;;;23.73;88.92;99704.22;8410041;28;20050;-73
2022/08/24 17:07:43;;;;;;;24.15;12.90;;;;;;;23.60;90.23;99705.66;8426422;28;20048;-73
2022/08/24 17:11:52;;;;;;;29.38;13.63;;;;;;;23.51;90.85;99714.25;8424766;28;20063;-74
2022/08/24 17:16:03;;;;;;;27.23;12.93;;;;;;;23.43;91.61;99712.56;8419927;28;20545;-73
2022/08/24 17:20:13;;;;;;;31.67;16.45;;;;;;;23.31;91.93;99715.63;8395624;28;20043;-73
2022/08/24 17:24:23;;;;;;;27.40;14.20;;;;;;;23.25;92.35;99733.66;8385511;28;20393;-74
2022/08/24 17:28:37;;;;;;;25.00;14.02;;;;;;;23.17;93.46;99738.31;8397038;28;20079;-74
2022/08/24 17:32:57;;;;;;;26.63;14.35;;;;;;;23.06;93.93;99734.63;8415728;28;20049;-74
2022/08/24 17:37:04;;;;;;;24.52;13.98;;;;;;;22.94;94.83;99735.72;8411578;28;20460;-74
2022/08/24 17:41:12;;;;;;;28.25;13.20;;;;;;;22.84;95.54;99735.59;8418976;28;20047;-74
2022/08/24 17:45:21;;;;;;;23.67;13.10;;;;;;;22.74;95.90;99742.53;8391730;28;20043;-73
2022/08/24 17:49:33;;;;;;;27.40;13.77;;;;;;;22.62;96.46;99728.97;8376028;28;20520;-73
2022/08/24 17:53:44;;;;;;;30.25;15.07;;;;;;;22.50;96.99;99731.97;8375812;28;20059;-74
2022/08/24 17:57:50;;;;;;;26.25;15.02;;;;;;;22.41;97.39;99734.22;8420849;28;20052;-73
2022/08/24 18:02:03;;;;;;;19.73;13.32;;;;;;;22.30;97.83;99726.59;8424236;28;20052;-73
2022/08/24 18:06:11;;;;;;;22.63;12.73;;;;;;;22.17;98.17;99730.72;8411552;28;20032;-73
2022/08/24 18:10:26;;;;;;;30.17;13.40;;;;;;;22.08;98.26;99721.16;8410833;28;20106;-73
2022/08/24 18:14:39;;;;;;;22.65;12.90;;;;;;;21.98;98.27;99728.09;8389223;28;20106;-73
2022/08/24 18:18:48;;;;;;;18.20;13.27;;;;;;;21.92;98.51;99740.53;8411168;28;20127;-73
2022/08/24 18:22:56;;;;;;;;;;;;;;;21.82;98.42;99735.66;8391635;28;20062;-73
2022/08/24 18:27:14;;;;;;;18.77;13.80;;;;;;;21.72;98.58;99744.53;8424171;28;19967;-73
2022/08/24 18:31:33;;;;;;;22.25;13.90;;;;;;;21.65;98.78;99752.63;8372579;28;20052;-73
2022/08/24 18:35:47;;;;;;;21.58;14.20;;;;;;;21.61;99.20;99741.59;8418984;28;20247;-73
2022/08/24 18:40:00;;;;;;;24.73;15.48;;;;;;;21.62;99.37;99747.88;8360880;28;20505;-74
2022/08/24 18:44:14;;;;;;;23.17;17.33;;;;;;;21.63;99.73;99754.94;8369389;28;20094;-73
2022/08/24 18:48:26;;;;;;;35.65;18.55;;;;;;;21.64;99.71;99751.03;8428079;28;20113;-73
2022/08/24 18:52:38;;;;;;;24.83;17.40;;;;;;;21.66;99.84;99748.72;8398543;28;20043;-74
2022/08/24 18:56:49;;;;;;;36.55;18.00;;;;;;;21.64;99.84;99745.53;8431453;28;20411;-74
2022/08/24 19:01:00;;;;;;;31.83;15.38;;;;;;;21.60;99.87;99739.19;8430363;28;20496;-74
2022/08/24 19:05:17;;;;;;;22.80;14.65;;;;;;;21.47;100.00;99736.63;8420740;28;20055;-74
2022/08/24 19:09:32;;;;;;;22.85;14.88;;;;;;;21.37;100.00;99741.94;8356604;28;20517;-74
2022/08/24 19:14:03;;;;;;;28.08;15.75;;;;;;;21.27;100.00;99751.56;8340329;28;20263;-74
2022/08/24 19:18:15;;;;;;;27.15;15.80;;;;;;;21.21;100.00;99739.28;8335512;28;20505;-74
2022/08/24 19:22:26;;;;;;;32.55;15.07;;;;;;;21.15;100.00;99740.75;8337350;28;20521;-74
2022/08/24 19:26:36;;;;;;;23.65;15.32;;;;;;;21.10;100.00;99738.25;8363401;28;20436;-73
2022/08/24 19:30:47;;;;;;;22.65;15.40;;;;;;;21.07;100.00;99730.75;8330110;28;20429;-73
2022/08/24 19:34:57;;;;;;;22.80;14.45;;;;;;;21.02;100.00;99733.81;8363053;28;20113;-73